createdAt,value
2018-12-29T00:00:34.039Z,1025.6
2018-12-29T00:01:35.453Z,1025.5
2018-12-29T00:02:37.104Z,1025.5
2018-12-29T00:03:38.498Z,1025.5
2018-12-29T00:04:39.915Z,1025.4
2018-12-29T00:05:41.441Z,1025.4
2018-12-29T00:06:42.830Z,1025.4
2018-12-29T00:07:44.242Z,1025.5
2018-12-29T00:08:45.758Z,1025.5
2018-12-29T00:09:47.164Z,1025.4
2018-12-29T00:10:48.557Z,1025.4
2018-12-29T00:11:50.106Z,1025.4
2018-12-29T00:12:51.510Z,1025.4
2018-12-29T00:13:52.957Z,1025.4
2018-12-29T00:14:55.108Z,1025.5
2018-12-29T00:15:55.725Z,1025.4
2018-12-29T00:16:57.688Z,1025.5
2018-12-29T00:17:59.424Z,1025.5
2018-12-29T00:19:00.989Z,1025.5
2018-12-29T00:20:02.333Z,1025.5
2018-12-29T00:21:03.865Z,1025.5
2018-12-29T00:22:05.297Z,1025.5
2018-12-29T00:23:06.987Z,1025.5
2018-12-29T00:24:08.497Z,1025.5
2018-12-29T00:25:10.119Z,1025.4
2018-12-29T00:26:11.520Z,1025.4
2018-12-29T00:27:13.116Z,1025.4
2018-12-29T00:28:14.527Z,1025.3
2018-12-29T00:29:15.989Z,1025.4
2018-12-29T00:30:17.401Z,1025.4
2018-12-29T00:31:20.418Z,1025.4
2018-12-29T00:32:23.528Z,1025.4
2018-12-29T00:33:25.887Z,1025.4
2018-12-29T00:34:28.098Z,1025.3
2018-12-29T00:35:29.587Z,1025.3
2018-12-29T00:36:31.665Z,1025.4
2018-12-29T00:37:33.081Z,1025.4
2018-12-29T00:38:34.696Z,1025.3
2018-12-29T00:39:36.091Z,1025.3
2018-12-29T00:40:37.503Z,1025.3
2018-12-29T00:41:39.026Z,1025.3
2018-12-29T00:42:40.429Z,1025.3
2018-12-29T00:43:41.822Z,1025.4
2018-12-29T00:44:43.430Z,1025.3
2018-12-29T00:45:45.495Z,1025.4
2018-12-29T00:46:46.156Z,1025.3
2018-12-29T00:47:47.681Z,1025.3
2018-12-29T00:48:49.072Z,1025.3
2018-12-29T00:49:50.482Z,1025.3
2018-12-29T00:50:51.995Z,1025.3
2018-12-29T00:51:53.388Z,1025.3
2018-12-29T00:52:54.788Z,1025.3
2018-12-29T00:53:56.324Z,1025.3
2018-12-29T00:54:57.733Z,1025.4
2018-12-29T00:55:59.128Z,1025.4
2018-12-29T00:57:00.643Z,1025.4
2018-12-29T00:58:02.042Z,1025.4
2018-12-29T00:59:03.503Z,1025.4
2018-12-29T01:00:05.176Z,1025.4
2018-12-29T01:01:06.567Z,1025.3
2018-12-29T01:02:07.966Z,1025.4
2018-12-29T01:03:09.466Z,1025.4
2018-12-29T01:04:10.884Z,1025.4
2018-12-29T01:05:12.323Z,1025.4
2018-12-29T01:06:13.802Z,1025.4
2018-12-29T01:07:15.203Z,1025.4
2018-12-29T01:08:16.664Z,1025.4
2018-12-29T01:09:18.057Z,1025.4
2018-12-29T01:10:19.544Z,1025.4
2018-12-29T01:11:20.939Z,1025.4
2018-12-29T01:12:22.429Z,1025.4
2018-12-29T01:13:23.822Z,1025.5
2018-12-29T01:14:25.316Z,1025.4
2018-12-29T01:15:26.714Z,1025.4
2018-12-29T01:16:28.104Z,1025.5
2018-12-29T01:17:29.623Z,1025.5
2018-12-29T01:18:31.028Z,1025.4
2018-12-29T01:19:32.419Z,1025.5
2018-12-29T01:20:33.947Z,1025.4
2018-12-29T01:21:35.349Z,1025.5
2018-12-29T01:22:36.838Z,1025.4
2018-12-29T01:23:38.227Z,1025.5
2018-12-29T01:24:39.708Z,1025.5
2018-12-29T01:25:41.100Z,1025.4
2018-12-29T01:26:42.498Z,1025.5
2018-12-29T01:27:44.030Z,1025.4
2018-12-29T01:28:45.425Z,1025.4
2018-12-29T01:29:46.819Z,1025.4
2018-12-29T01:30:48.353Z,1025.5
2018-12-29T01:31:49.746Z,1025.4
2018-12-29T01:32:51.139Z,1025.4
2018-12-29T01:33:52.672Z,1025.4
2018-12-29T01:34:54.069Z,1025.4
2018-12-29T01:35:55.836Z,1025.5
2018-12-29T01:36:57.403Z,1025.4
2018-12-29T01:37:58.795Z,1025.4
2018-12-29T01:39:00.285Z,1025.4
2018-12-29T01:40:01.677Z,1025.4
2018-12-29T01:41:03.078Z,1025.5
2018-12-29T01:42:04.609Z,1025.5
2018-12-29T01:43:06.014Z,1025.5
2018-12-29T01:44:07.688Z,1025.5
2018-12-29T01:45:09.134Z,1025.4
2018-12-29T01:46:10.525Z,1025.5
2018-12-29T01:47:11.922Z,1025.4
2018-12-29T01:48:13.455Z,1025.5
2018-12-29T01:49:14.905Z,1025.5
2018-12-29T01:50:16.304Z,1025.4
2018-12-29T01:51:17.778Z,1025.4
2018-12-29T01:52:19.170Z,1025.4
2018-12-29T01:53:20.657Z,1025.5
2018-12-29T01:54:22.057Z,1025.5
2018-12-29T01:55:23.536Z,1025.5
2018-12-29T01:56:24.933Z,1025.5
2018-12-29T01:57:26.418Z,1025.6
2018-12-29T01:58:28.206Z,1025.5
2018-12-29T01:59:29.711Z,1025.5
2018-12-29T02:00:31.114Z,1025.5
2018-12-29T02:01:32.509Z,1025.6
2018-12-29T02:02:34.033Z,1025.5
2018-12-29T02:03:35.428Z,1025.5
2018-12-29T02:04:36.823Z,1025.5
2018-12-29T02:05:38.353Z,1025.5
2018-12-29T02:06:39.745Z,1025.5
2018-12-29T02:07:41.236Z,1025.5
2018-12-29T02:08:42.627Z,1025.5
2018-12-29T02:09:44.118Z,1025.5
2018-12-29T02:10:45.513Z,1025.5
2018-12-29T02:11:46.996Z,1025.5
2018-12-29T02:12:48.387Z,1025.6
2018-12-29T02:13:49.874Z,1025.5
2018-12-29T02:14:51.270Z,1025.5
2018-12-29T02:15:52.757Z,1025.5
2018-12-29T02:16:54.150Z,1025.6
2018-12-29T02:17:55.635Z,1025.6
2018-12-29T02:18:57.033Z,1025.6
2018-12-29T02:19:58.515Z,1025.7
2018-12-29T02:20:59.911Z,1025.7
2018-12-29T02:22:01.397Z,1025.8
2018-12-29T02:23:02.795Z,1025.8
2018-12-29T02:24:04.280Z,1025.8
2018-12-29T02:25:05.673Z,1025.7
2018-12-29T02:26:07.163Z,1025.7
2018-12-29T02:27:08.555Z,1025.7
2018-12-29T02:28:09.951Z,1025.7
2018-12-29T02:29:11.483Z,1025.7
2018-12-29T02:30:12.875Z,1025.7
2018-12-29T02:31:14.269Z,1025.7
2018-12-29T02:32:15.803Z,1025.7
2018-12-29T02:33:17.196Z,1025.7
2018-12-29T02:34:18.704Z,1025.7
2018-12-29T02:35:20.097Z,1025.7
2018-12-29T02:36:21.482Z,1025.8
2018-12-29T02:37:23.382Z,1025.7
2018-12-29T02:38:24.777Z,1025.7
2018-12-29T02:39:26.171Z,1025.8
2018-12-29T02:40:27.734Z,1025.8
2018-12-29T02:41:29.517Z,1025.8
2018-12-29T02:42:30.912Z,1025.8
2018-12-29T02:43:32.465Z,1025.9
2018-12-29T02:44:33.860Z,1025.8
2018-12-29T02:45:35.349Z,1025.8
2018-12-29T02:46:37.133Z,1025.8
2018-12-29T02:47:38.933Z,1025.8
2018-12-29T02:48:40.487Z,1025.7
2018-12-29T02:49:41.878Z,1025.8
2018-12-29T02:50:43.271Z,1025.8
2018-12-29T02:51:44.810Z,1025.8
2018-12-29T02:52:46.205Z,1025.8
2018-12-29T02:53:47.602Z,1025.8
2018-12-29T02:54:49.130Z,1025.8
2018-12-29T02:55:50.520Z,1025.7
2018-12-29T02:56:51.912Z,1025.7
2018-12-29T02:57:53.452Z,1025.7
2018-12-29T02:58:54.875Z,1025.6
2018-12-29T02:59:56.268Z,1025.6
2018-12-29T03:00:57.776Z,1025.6
2018-12-29T03:01:59.168Z,1025.6
2018-12-29T03:03:00.942Z,1025.7
2018-12-29T03:04:02.502Z,1025.6
2018-12-29T03:05:03.895Z,1025.7
2018-12-29T03:06:05.297Z,1025.7
2018-12-29T03:07:06.826Z,1025.7
2018-12-29T03:08:08.225Z,1025.7
2018-12-29T03:09:09.621Z,1025.7
2018-12-29T03:10:11.147Z,1025.7
2018-12-29T03:11:12.547Z,1025.7
2018-12-29T03:12:13.941Z,1025.7
2018-12-29T03:13:15.469Z,1025.7
2018-12-29T03:14:16.866Z,1025.6
2018-12-29T03:15:18.312Z,1025.6
2018-12-29T03:16:19.805Z,1025.7
2018-12-29T03:17:21.186Z,1025.7
2018-12-29T03:18:22.675Z,1025.7
2018-12-29T03:19:24.068Z,1025.7
2018-12-29T03:20:25.557Z,1025.6
2018-12-29T03:21:26.951Z,1025.7
2018-12-29T03:22:28.728Z,1025.7
2018-12-29T03:23:30.284Z,1025.6
2018-12-29T03:24:31.678Z,1025.7
2018-12-29T03:25:33.459Z,1025.6
2018-12-29T03:26:35.439Z,1025.5
2018-12-29T03:27:36.814Z,1025.5
2018-12-29T03:28:38.206Z,1025.6
2018-12-29T03:29:39.748Z,1025.6
2018-12-29T03:30:41.152Z,1025.6
2018-12-29T03:31:42.533Z,1025.5
2018-12-29T03:32:44.072Z,1025.6
2018-12-29T03:33:45.459Z,1025.6
2018-12-29T03:34:46.946Z,1025.5
2018-12-29T03:35:48.341Z,1025.6
2018-12-29T03:36:49.827Z,1025.6
2018-12-29T03:37:51.231Z,1025.6
2018-12-29T03:38:52.711Z,1025.7
2018-12-29T03:39:54.101Z,1025.6
2018-12-29T03:40:55.590Z,1025.6
2018-12-29T03:41:56.985Z,1025.6
2018-12-29T03:42:58.474Z,1025.6
2018-12-29T03:43:59.873Z,1025.6
2018-12-29T03:45:01.355Z,1025.6
2018-12-29T03:46:02.766Z,1025.6
2018-12-29T03:47:04.231Z,1025.5
2018-12-29T03:48:06.006Z,1025.5
2018-12-29T03:49:07.790Z,1025.5
2018-12-29T03:50:09.367Z,1025.5
2018-12-29T03:51:10.726Z,1025.6
2018-12-29T03:52:12.113Z,1025.5
2018-12-29T03:53:13.695Z,1025.5
2018-12-29T03:54:15.089Z,1025.4
2018-12-29T03:55:16.530Z,1025.4
2018-12-29T03:56:18.038Z,1025.5
2018-12-29T03:57:19.427Z,1025.4
2018-12-29T03:58:20.820Z,1025.4
2018-12-29T03:59:22.408Z,1025.3
2018-12-29T04:00:23.730Z,1025.4
2018-12-29T04:01:25.124Z,1025.4
2018-12-29T04:02:26.513Z,1025.4
2018-12-29T04:03:27.903Z,1025.4
2018-12-29T04:04:29.363Z,1025.3
2018-12-29T04:05:30.755Z,1025.4
2018-12-29T04:06:32.213Z,1025.4
2018-12-29T04:07:33.599Z,1025.4
2018-12-29T04:08:35.526Z,1025.4
2018-12-29T04:09:36.916Z,1025.5
2018-12-29T04:10:38.388Z,1025.4
2018-12-29T04:11:39.781Z,1025.4
2018-12-29T04:12:41.265Z,1025.4
2018-12-29T04:13:42.661Z,1025.4
2018-12-29T04:14:44.151Z,1025.4
2018-12-29T04:15:45.599Z,1025.3
2018-12-29T04:16:47.030Z,1025.3
2018-12-29T04:17:48.424Z,1025.3
2018-12-29T04:18:49.813Z,1025.3
2018-12-29T04:19:51.349Z,1025.3
2018-12-29T04:20:52.744Z,1025.3
2018-12-29T04:21:54.136Z,1025.3
2018-12-29T04:22:55.677Z,1025.3
2018-12-29T04:23:57.065Z,1025.2
2018-12-29T04:24:58.551Z,1025.3
2018-12-29T04:25:59.944Z,1025.2
2018-12-29T04:27:01.431Z,1025.2
2018-12-29T04:28:02.825Z,1025.2
2018-12-29T04:29:04.314Z,1025.2
2018-12-29T04:30:05.710Z,1025.1
2018-12-29T04:31:07.194Z,1025.2
2018-12-29T04:32:08.589Z,1025.1
2018-12-29T04:33:09.984Z,1025.1
2018-12-29T04:34:11.517Z,1025.1
2018-12-29T04:35:12.914Z,1025.1
2018-12-29T04:36:14.304Z,1025.0
2018-12-29T04:37:15.840Z,1025.0
2018-12-29T04:38:17.244Z,1025.0
2018-12-29T04:39:18.647Z,1025.0
2018-12-29T04:40:20.161Z,1025.0
2018-12-29T04:41:21.552Z,1025.0
2018-12-29T04:42:22.952Z,1025.0
2018-12-29T04:43:24.510Z,1025.0
2018-12-29T04:44:25.944Z,1025.0
2018-12-29T04:45:27.738Z,1025.0
2018-12-29T04:46:29.130Z,1024.9
2018-12-29T04:47:30.655Z,1025.0
2018-12-29T04:48:32.434Z,1025.0
2018-12-29T04:49:33.944Z,1025.0
2018-12-29T04:50:35.388Z,1025.0
2018-12-29T04:51:36.882Z,1024.9
2018-12-29T04:52:38.283Z,1025.0
2018-12-29T04:53:39.705Z,1024.9
2018-12-29T04:54:41.167Z,1024.9
2018-12-29T04:55:42.585Z,1024.9
2018-12-29T04:56:43.976Z,1024.9
2018-12-29T04:57:45.847Z,1024.9
2018-12-29T04:58:47.241Z,1025.0
2018-12-29T04:59:48.630Z,1024.9
2018-12-29T05:00:50.581Z,1025.0
2018-12-29T05:01:51.975Z,1025.0
2018-12-29T05:02:53.435Z,1025.0
2018-12-29T05:03:55.033Z,1025.0
2018-12-29T05:04:56.426Z,1025.0
2018-12-29T05:05:57.813Z,1025.0
2018-12-29T05:06:59.353Z,1025.0
2018-12-29T05:08:00.756Z,1025.0
2018-12-29T05:09:02.147Z,1025.0
2018-12-29T05:10:03.672Z,1025.0
2018-12-29T05:11:05.071Z,1025.0
2018-12-29T05:12:06.759Z,1024.9
2018-12-29T05:13:08.155Z,1024.9
2018-12-29T05:14:09.551Z,1025.0
2018-12-29T05:15:11.080Z,1025.0
2018-12-29T05:16:12.986Z,1025.0
2018-12-29T05:17:13.828Z,1025.0
2018-12-29T05:18:15.779Z,1025.0
2018-12-29T05:19:17.169Z,1025.0
2018-12-29T05:20:18.696Z,1025.0
2018-12-29T05:21:20.083Z,1025.0
2018-12-29T05:22:21.777Z,1025.0
2018-12-29T05:23:23.170Z,1025.0
2018-12-29T05:24:24.563Z,1025.0
2018-12-29T05:25:26.171Z,1025.0
2018-12-29T05:26:27.617Z,1025.0
2018-12-29T05:27:29.007Z,1025.1
2018-12-29T05:28:30.797Z,1025.1
2018-12-29T05:29:32.190Z,1025.1
2018-12-29T05:30:33.580Z,1025.0
2018-12-29T05:31:35.152Z,1025.1
2018-12-29T05:32:36.670Z,1025.0
2018-12-29T05:33:38.061Z,1025.0
2018-12-29T05:34:39.676Z,1025.1
2018-12-29T05:35:41.071Z,1025.1
2018-12-29T05:36:42.762Z,1025.1
2018-12-29T05:37:44.153Z,1025.1
2018-12-29T05:38:45.940Z,1025.1
2018-12-29T05:39:47.494Z,1025.1
2018-12-29T05:40:48.896Z,1025.2
2018-12-29T05:41:50.284Z,1025.1
2018-12-29T05:42:51.813Z,1025.1
2018-12-29T05:43:53.209Z,1025.2
2018-12-29T05:44:54.628Z,1025.2
2018-12-29T05:45:56.163Z,1025.2
2018-12-29T05:46:57.560Z,1025.2
2018-12-29T05:47:59.222Z,1025.2
2018-12-29T05:49:00.618Z,1025.2
2018-12-29T05:50:02.685Z,1025.2
2018-12-29T05:51:04.084Z,1025.3
2018-12-29T05:52:05.599Z,1025.3
2018-12-29T05:53:07.142Z,1025.4
2018-12-29T05:54:08.685Z,1025.3
2018-12-29T05:55:10.465Z,1025.4
2018-12-29T05:56:12.180Z,1025.4
2018-12-29T05:57:13.577Z,1025.5
2018-12-29T05:58:15.655Z,1025.5
2018-12-29T05:59:17.051Z,1025.5
2018-12-29T06:00:18.445Z,1025.5
2018-12-29T06:01:19.998Z,1025.4
2018-12-29T06:02:21.384Z,1025.5
2018-12-29T06:03:22.787Z,1025.5
2018-12-29T06:04:25.082Z,1025.5
2018-12-29T06:05:26.484Z,1025.5
2018-12-29T06:06:27.876Z,1025.6
2018-12-29T06:07:29.463Z,1025.5
2018-12-29T06:08:31.264Z,1025.5
2018-12-29T06:09:32.653Z,1025.5
2018-12-29T06:10:34.189Z,1025.6
2018-12-29T06:11:35.584Z,1025.6
2018-12-29T06:12:37.079Z,1025.6
2018-12-29T06:13:38.487Z,1025.5
2018-12-29T06:14:39.885Z,1025.5
2018-12-29T06:15:41.604Z,1025.5
2018-12-29T06:16:43.004Z,1025.5
2018-12-29T06:17:44.400Z,1025.6
2018-12-29T06:18:45.919Z,1025.6
2018-12-29T06:19:47.314Z,1025.7
2018-12-29T06:20:49.014Z,1025.6
2018-12-29T06:21:50.420Z,1025.6
2018-12-29T06:22:52.089Z,1025.6
2018-12-29T06:23:53.480Z,1025.6
2018-12-29T06:24:54.876Z,1025.6
2018-12-29T06:25:56.413Z,1025.6
2018-12-29T06:26:57.806Z,1025.6
2018-12-29T06:27:59.203Z,1025.6
2018-12-29T06:29:00.731Z,1025.6
2018-12-29T06:30:02.158Z,1025.6
2018-12-29T06:31:04.197Z,1025.6
2018-12-29T06:32:05.593Z,1025.6
2018-12-29T06:33:07.110Z,1025.5
2018-12-29T06:34:08.502Z,1025.6
2018-12-29T06:35:10.196Z,1025.6
2018-12-29T06:36:11.589Z,1025.6
2018-12-29T06:37:13.281Z,1025.5
2018-12-29T06:38:14.682Z,1025.6
2018-12-29T06:39:16.072Z,1025.5
2018-12-29T06:40:17.605Z,1025.6
2018-12-29T06:41:18.996Z,1025.6
2018-12-29T06:42:20.397Z,1025.6
2018-12-29T06:43:21.925Z,1025.6
2018-12-29T06:44:23.320Z,1025.6
2018-12-29T06:45:24.714Z,1025.6
2018-12-29T06:46:26.243Z,1025.5
2018-12-29T06:47:27.637Z,1025.5
2018-12-29T06:48:29.080Z,1025.6
2018-12-29T06:49:30.772Z,1025.5
2018-12-29T06:50:32.171Z,1025.6
2018-12-29T06:51:33.575Z,1025.6
2018-12-29T06:52:35.527Z,1025.6
2018-12-29T06:53:36.929Z,1025.5
2018-12-29T06:54:38.319Z,1025.6
2018-12-29T06:55:40.026Z,1025.6
2018-12-29T06:56:41.422Z,1025.5
2018-12-29T06:57:43.117Z,1025.5
2018-12-29T06:58:44.512Z,1025.6
2018-12-29T06:59:45.908Z,1025.5
2018-12-29T07:00:47.439Z,1025.6
2018-12-29T07:01:48.833Z,1025.5
2018-12-29T07:02:50.229Z,1025.6
2018-12-29T07:03:51.763Z,1025.6
2018-12-29T07:04:53.153Z,1025.5
2018-12-29T07:05:54.933Z,1025.6
2018-12-29T07:06:56.506Z,1025.7
2018-12-29T07:07:57.875Z,1025.6
2018-12-29T07:08:59.273Z,1025.6
2018-12-29T07:10:00.807Z,1025.7
2018-12-29T07:11:02.590Z,1025.7
2018-12-29T07:12:04.312Z,1025.6
2018-12-29T07:13:05.706Z,1025.6
2018-12-29T07:14:07.475Z,1025.6
2018-12-29T07:15:08.868Z,1025.7
2018-12-29T07:16:10.474Z,1025.7
2018-12-29T07:17:11.902Z,1025.7
2018-12-29T07:18:13.562Z,1025.7
2018-12-29T07:19:14.958Z,1025.7
2018-12-29T07:20:16.352Z,1025.7
2018-12-29T07:21:17.886Z,1025.7
2018-12-29T07:22:19.280Z,1025.7
2018-12-29T07:23:20.673Z,1025.8
2018-12-29T07:24:22.204Z,1025.7
2018-12-29T07:25:23.601Z,1025.8
2018-12-29T07:26:24.996Z,1025.8
2018-12-29T07:27:26.527Z,1025.8
2018-12-29T07:28:27.920Z,1025.8
2018-12-29T07:29:29.610Z,1025.8
2018-12-29T07:30:31.061Z,1025.8
2018-12-29T07:31:32.699Z,1025.9
2018-12-29T07:32:34.093Z,1025.8
2018-12-29T07:33:36.164Z,1025.8
2018-12-29T07:34:37.559Z,1025.8
2018-12-29T07:35:38.957Z,1025.8
2018-12-29T07:36:40.514Z,1025.8
2018-12-29T07:37:41.907Z,1025.9
2018-12-29T07:38:43.303Z,1025.9
2018-12-29T07:39:44.841Z,1025.8
2018-12-29T07:40:46.236Z,1025.9
2018-12-29T07:41:47.629Z,1025.8
2018-12-29T07:42:49.155Z,1025.9
2018-12-29T07:43:50.549Z,1025.8
2018-12-29T07:44:51.980Z,1025.9
2018-12-29T07:45:53.686Z,1025.8
2018-12-29T07:46:55.085Z,1025.8
2018-12-29T07:47:56.774Z,1025.8
2018-12-29T07:48:58.165Z,1025.8
2018-12-29T07:49:59.855Z,1025.8
2018-12-29T07:51:01.254Z,1025.8
2018-12-29T07:52:02.651Z,1025.8
2018-12-29T07:53:04.183Z,1025.8
2018-12-29T07:54:05.578Z,1025.8
2018-12-29T07:55:07.406Z,1025.8
2018-12-29T07:56:09.496Z,1025.8
2018-12-29T07:57:10.887Z,1025.8
2018-12-29T07:58:12.416Z,1025.8
2018-12-29T07:59:13.811Z,1025.8
2018-12-29T08:00:15.490Z,1025.8
2018-12-29T08:01:16.886Z,1025.8
2018-12-29T08:02:18.280Z,1025.8
2018-12-29T08:03:19.812Z,1025.8
2018-12-29T08:04:21.201Z,1025.8
2018-12-29T08:05:22.598Z,1025.7
2018-12-29T08:06:24.131Z,1025.8
2018-12-29T08:07:25.526Z,1025.8
2018-12-29T08:08:27.219Z,1025.8
2018-12-29T08:09:28.614Z,1025.8
2018-12-29T08:10:30.679Z,1025.8
2018-12-29T08:11:32.070Z,1025.8
2018-12-29T08:12:33.596Z,1025.8
2018-12-29T08:13:34.985Z,1025.8
2018-12-29T08:14:36.685Z,1025.8
2018-12-29T08:15:38.456Z,1025.8
2018-12-29T08:16:39.851Z,1025.8
2018-12-29T08:17:41.410Z,1025.8
2018-12-29T08:18:42.800Z,1025.8
2018-12-29T08:19:44.192Z,1025.8
2018-12-29T08:20:45.734Z,1025.8
2018-12-29T08:21:47.124Z,1025.8
2018-12-29T08:22:48.820Z,1025.8
2018-12-29T08:23:50.208Z,1025.7
2018-12-29T08:24:51.907Z,1025.7
2018-12-29T08:25:53.309Z,1025.8
2018-12-29T08:26:54.699Z,1025.7
2018-12-29T08:27:56.227Z,1025.7
2018-12-29T08:28:57.620Z,1025.6
2018-12-29T08:29:59.011Z,1025.7
2018-12-29T08:31:00.544Z,1025.7
2018-12-29T08:32:01.942Z,1025.7
2018-12-29T08:33:03.631Z,1025.7
2018-12-29T08:34:06.903Z,1025.6
2018-12-29T08:35:06.710Z,1025.6
2018-12-29T08:36:08.371Z,1025.6
2018-12-29T08:37:09.773Z,1025.5
2018-12-29T08:38:11.170Z,1025.5
2018-12-29T08:39:12.691Z,1025.5
2018-12-29T08:40:14.078Z,1025.5
2018-12-29T08:41:15.477Z,1025.5
2018-12-29T08:42:17.014Z,1025.4
2018-12-29T08:43:18.403Z,1025.4
2018-12-29T08:44:19.814Z,1025.4
2018-12-29T08:45:21.326Z,1025.4
2018-12-29T08:46:23.109Z,1025.3
2018-12-29T08:47:26.439Z,1025.4
2018-12-29T08:48:28.377Z,1025.3
2018-12-29T08:49:29.774Z,1025.4
2018-12-29T08:50:31.173Z,1025.4
2018-12-29T08:51:32.837Z,1025.3
2018-12-29T08:52:34.294Z,1025.3
2018-12-29T08:53:35.923Z,1025.3
2018-12-29T08:54:41.274Z,1025.3
2018-12-29T08:55:43.155Z,1025.4
2018-12-29T08:56:44.807Z,1025.4
2018-12-29T08:57:46.239Z,1025.4
2018-12-29T08:58:47.844Z,1025.3
2018-12-29T08:59:49.614Z,1025.4
2018-12-29T09:00:51.008Z,1025.4
2018-12-29T09:01:52.569Z,1025.3
2018-12-29T09:02:54.000Z,1025.4
2018-12-29T09:03:55.409Z,1025.4
2018-12-29T09:04:57.094Z,1025.4
2018-12-29T09:05:58.500Z,1025.4
2018-12-29T09:06:59.910Z,1025.4
2018-12-29T09:08:01.416Z,1025.4
2018-12-29T09:09:02.810Z,1025.4
2018-12-29T09:10:05.749Z,1025.5
2018-12-29T09:11:05.735Z,1025.4
2018-12-29T09:12:07.134Z,1025.4
2018-12-29T09:13:08.535Z,1025.4
2018-12-29T09:14:10.448Z,1025.4
2018-12-29T09:15:11.843Z,1025.3
2018-12-29T09:16:13.267Z,1025.4
2018-12-29T09:17:14.812Z,1025.4
2018-12-29T09:18:16.773Z,1025.3
2018-12-29T09:19:18.125Z,1025.4
2018-12-29T09:20:19.726Z,1025.4
2018-12-29T09:21:21.121Z,1025.4
2018-12-29T09:22:22.900Z,1025.4
2018-12-29T09:23:24.459Z,1025.4
2018-12-29T09:24:25.858Z,1025.4
2018-12-29T09:25:27.920Z,1025.5
2018-12-29T09:26:29.322Z,1025.4
2018-12-29T09:27:31.215Z,1025.6
2018-12-29T09:28:32.618Z,1025.5
2018-12-29T09:29:34.127Z,1025.4
2018-12-29T09:30:35.596Z,1025.4
2018-12-29T09:31:37.341Z,1025.4
2018-12-29T09:32:38.721Z,1025.3
2018-12-29T09:33:40.674Z,1025.3
2018-12-29T09:34:42.355Z,1025.3
2018-12-29T09:35:43.754Z,1025.3
2018-12-29T09:36:45.533Z,1025.3
2018-12-29T09:37:47.084Z,1025.2
2018-12-29T09:38:48.477Z,1025.3
2018-12-29T09:39:49.872Z,1025.3
2018-12-29T09:40:51.783Z,1025.3
2018-12-29T09:41:53.180Z,1025.3
2018-12-29T09:42:54.576Z,1025.3
2018-12-29T09:43:56.135Z,1025.2
2018-12-29T09:44:57.533Z,1025.2
2018-12-29T09:45:59.226Z,1025.2
2018-12-29T09:47:00.615Z,1025.2
2018-12-29T09:48:02.012Z,1025.1
2018-12-29T09:49:03.544Z,1025.1
2018-12-29T09:50:04.937Z,1025.0
2018-12-29T09:51:06.335Z,1025.1
2018-12-29T09:52:07.872Z,1024.9
2018-12-29T09:53:09.256Z,1025.0
2018-12-29T09:54:10.949Z,1025.0
2018-12-29T09:55:12.362Z,1024.9
2018-12-29T09:56:14.570Z,1024.9
2018-12-29T09:57:15.961Z,1024.9
2018-12-29T09:58:17.362Z,1024.9
2018-12-29T09:59:19.346Z,1024.9
2018-12-29T10:00:20.752Z,1024.9
2018-12-29T10:01:22.136Z,1024.7
2018-12-29T10:02:24.093Z,1024.8
2018-12-29T10:03:25.489Z,1024.8
2018-12-29T10:04:26.845Z,1024.7
2018-12-29T10:05:28.325Z,1024.7
2018-12-29T10:06:29.719Z,1024.6
2018-12-29T10:07:31.892Z,1024.7
2018-12-29T10:08:33.568Z,1024.6
2018-12-29T10:09:35.731Z,1024.6
2018-12-29T10:10:37.926Z,1024.5
2018-12-29T10:11:39.528Z,1024.4
2018-12-29T10:12:40.932Z,1024.4
2018-12-29T10:13:42.999Z,1024.4
2018-12-29T10:14:44.396Z,1024.4
2018-12-29T10:15:46.290Z,1024.4
2018-12-29T10:16:48.090Z,1024.4
2018-12-29T10:17:49.613Z,1024.3
2018-12-29T10:18:51.014Z,1024.3
2018-12-29T10:19:52.697Z,1024.3
2018-12-29T10:20:54.089Z,1024.3
2018-12-29T10:21:55.787Z,1024.2
2018-12-29T10:22:57.177Z,1024.3
2018-12-29T10:23:58.582Z,1024.3
2018-12-29T10:25:00.231Z,1024.3
2018-12-29T10:26:01.572Z,1024.3
2018-12-29T10:27:02.974Z,1024.2
2018-12-29T10:28:04.625Z,1024.3
2018-12-29T10:29:06.051Z,1024.3
2018-12-29T10:30:07.709Z,1024.2
2018-12-29T10:31:09.106Z,1024.2
2018-12-29T10:32:10.501Z,1024.2
2018-12-29T10:33:12.409Z,1024.2
2018-12-29T10:34:13.817Z,1024.2
2018-12-29T10:35:15.210Z,1024.2
2018-12-29T10:36:16.772Z,1024.1
2018-12-29T10:37:18.161Z,1024.2
2018-12-29T10:38:19.558Z,1024.1
2018-12-29T10:39:21.084Z,1024.1
2018-12-29T10:40:22.484Z,1024.1
2018-12-29T10:41:24.261Z,1024.1
2018-12-29T10:42:25.834Z,1024.2
2018-12-29T10:43:27.228Z,1024.1
2018-12-29T10:44:28.899Z,1024.1
2018-12-29T10:45:30.301Z,1024.1
2018-12-29T10:46:31.984Z,1024.1
2018-12-29T10:47:34.672Z,1024.1
2018-12-29T10:48:34.755Z,1024.1
2018-12-29T10:49:36.309Z,1024.1
2018-12-29T10:50:37.711Z,1024.1
2018-12-29T10:51:39.106Z,1024.1
2018-12-29T10:52:41.006Z,1024.0
2018-12-29T10:53:42.696Z,1024.1
2018-12-29T10:54:44.331Z,1024.0
2018-12-29T10:55:45.741Z,1024.0
2018-12-29T10:56:47.414Z,1024.0
2018-12-29T10:57:48.846Z,1024.0
2018-12-29T10:58:50.202Z,1024.0
2018-12-29T10:59:51.736Z,1024.1
2018-12-29T11:00:53.137Z,1024.1
2018-12-29T11:01:54.533Z,1024.1
2018-12-29T11:02:56.439Z,1024.1
2018-12-29T11:03:58.211Z,1024.1
2018-12-29T11:04:59.609Z,1024.1
2018-12-29T11:06:01.198Z,1024.0
2018-12-29T11:07:02.601Z,1024.0
2018-12-29T11:08:04.379Z,1024.0
2018-12-29T11:09:06.306Z,1024.0
2018-12-29T11:10:07.710Z,1023.9
2018-12-29T11:11:09.109Z,1023.9
2018-12-29T11:12:11.420Z,1023.9
2018-12-29T11:13:12.814Z,1023.9
2018-12-29T11:14:14.211Z,1023.9
2018-12-29T11:15:16.575Z,1023.7
2018-12-29T11:16:17.161Z,1023.7
2018-12-29T11:17:18.558Z,1023.7
2018-12-29T11:18:20.121Z,1023.6
2018-12-29T11:19:21.522Z,1023.5
2018-12-29T11:20:23.206Z,1023.5
2018-12-29T11:21:24.604Z,1023.4
2018-12-29T11:22:26.291Z,1023.5
2018-12-29T11:23:28.070Z,1023.4
2018-12-29T11:24:29.469Z,1023.5
2018-12-29T11:25:31.022Z,1023.5
2018-12-29T11:26:32.420Z,1023.5
2018-12-29T11:27:33.817Z,1023.5
2018-12-29T11:28:35.357Z,1023.5
2018-12-29T11:29:36.759Z,1023.5
2018-12-29T11:30:38.816Z,1023.5
2018-12-29T11:31:40.599Z,1023.5
2018-12-29T11:32:42.030Z,1023.5
2018-12-29T11:33:43.809Z,1023.5
2018-12-29T11:34:45.348Z,1023.5
2018-12-29T11:35:47.242Z,1023.6
2018-12-29T11:36:49.026Z,1023.6
2018-12-29T11:37:50.437Z,1023.6
2018-12-29T11:38:52.005Z,1023.5
2018-12-29T11:39:53.401Z,1023.5
2018-12-29T11:40:54.799Z,1023.5
2018-12-29T11:41:56.320Z,1023.6
2018-12-29T11:42:57.725Z,1023.5
2018-12-29T11:43:59.109Z,1023.5
2018-12-29T11:45:01.454Z,1023.6
2018-12-29T11:46:02.855Z,1023.5
2018-12-29T11:47:04.346Z,1023.6
2018-12-29T11:48:05.742Z,1023.6
2018-12-29T11:49:07.142Z,1023.7
2018-12-29T11:50:08.662Z,1023.5
2018-12-29T11:51:10.064Z,1023.5
2018-12-29T11:52:11.464Z,1023.4
2018-12-29T11:53:13.371Z,1023.4
2018-12-29T11:54:14.788Z,1023.4
2018-12-29T11:55:16.195Z,1023.3
2018-12-29T11:56:18.177Z,1023.2
2018-12-29T11:57:19.714Z,1023.2
2018-12-29T11:58:21.211Z,1023.2
2018-12-29T11:59:22.941Z,1023.1
2018-12-29T12:00:24.403Z,1023.0
2018-12-29T12:01:25.859Z,1022.8
2018-12-29T12:02:27.490Z,1022.8
2018-12-29T12:03:28.947Z,1022.8
2018-12-29T12:04:30.759Z,1022.8
2018-12-29T12:05:32.414Z,1022.8
2018-12-29T12:06:33.950Z,1022.9
2018-12-29T12:07:35.398Z,1022.9
2018-12-29T12:08:37.144Z,1023.0
2018-12-29T12:09:38.629Z,1023.0
2018-12-29T12:10:40.195Z,1023.1
2018-12-29T12:11:41.656Z,1023.2
2018-12-29T12:12:43.323Z,1023.1
2018-12-29T12:13:45.134Z,1023.1
2018-12-29T12:14:46.826Z,1023.0
2018-12-29T12:15:48.338Z,1023.0
2018-12-29T12:16:49.937Z,1023.0
2018-12-29T12:17:57.303Z,1023.0
2018-12-29T12:18:53.219Z,1022.9
2018-12-29T12:19:55.061Z,1022.9
2018-12-29T12:20:56.831Z,1022.8
2018-12-29T12:21:58.368Z,1023.0
2018-12-29T12:22:59.955Z,1022.9
2018-12-29T12:24:01.453Z,1022.9
2018-12-29T12:25:03.078Z,1022.8
2018-12-29T12:26:04.509Z,1022.8
2018-12-29T12:27:06.110Z,1022.9
2018-12-29T12:28:07.524Z,1022.8
2018-12-29T12:29:09.196Z,1022.8
2018-12-29T12:30:10.630Z,1022.8
2018-12-29T12:31:12.291Z,1022.7
2018-12-29T12:32:13.848Z,1022.7
2018-12-29T12:33:15.566Z,1022.7
2018-12-29T12:34:17.019Z,1022.9
2018-12-29T12:35:18.831Z,1023.0
2018-12-29T12:36:20.299Z,1023.1
2018-12-29T12:37:22.589Z,1023.1
2018-12-29T12:38:24.259Z,1023.0
2018-12-29T12:39:25.638Z,1022.9
2018-12-29T12:40:27.278Z,1022.9
2018-12-29T12:41:28.713Z,1022.9
2018-12-29T12:42:30.102Z,1022.9
2018-12-29T12:43:31.771Z,1022.9
2018-12-29T12:44:33.194Z,1022.8
2018-12-29T12:45:34.625Z,1022.8
2018-12-29T12:46:36.127Z,1022.8
2018-12-29T12:47:37.555Z,1022.8